Time;durP1;ratioP1;P1;durP2;ratioP2;P2;SDS_P1;SDS_P2;PMS_P1;PMS_P2;Temp;Humidity;BMP_temperature;BMP_pressure;BME280_temperature;BME280_humidity;BME280_pressure;Samples;Min_cycle;Max_cycle;Signal;HPM_P1;HPM_P2
2023/06/16 00:02:06;;;;;;;9.85;6.18;;;15.40;99.90;;;;;;5108059;28;20071;-89
2023/06/16 00:04:32;;;;;;;7.32;6.20;;;15.40;99.90;;;;;;5089534;28;20445;-89
2023/06/16 00:07:02;;;;;;;8.45;6.15;;;15.40;99.90;;;;;;5092888;28;20047;-89
2023/06/16 00:09:28;;;;;;;11.10;5.93;;;15.40;99.90;;;;;;5108102;28;20487;-89
2023/06/16 00:11:56;;;;;;;9.40;6.60;;;15.40;99.90;;;;;;5073435;28;20092;-90
2023/06/16 00:14:22;;;;;;;9.30;6.20;;;15.30;99.90;;;;;;5092901;28;20043;-90
2023/06/16 00:16:49;;;;;;;7.65;5.80;;;15.30;99.90;;;;;;5091730;28;20095;-90
2023/06/16 00:19:15;;;;;;;8.63;6.28;;;15.30;99.90;;;;;;5075954;28;20044;-90
2023/06/16 00:21:45;;;;;;;8.15;6.88;;;15.30;99.90;;;;;;5057495;28;20040;-89
2023/06/16 00:24:14;;;;;;;10.27;5.93;;;15.30;99.90;;;;;;5109648;28;20177;-90
2023/06/16 00:26:40;;;;;;;10.95;5.38;;;15.30;99.90;;;;;;5109072;28;20146;-90
2023/06/16 00:29:07;;;;;;;8.20;6.38;;;15.30;99.90;;;;;;5091305;28;20466;-89
2023/06/16 00:31:33;;;;;;;7.57;5.95;;;15.20;99.90;;;;;;5093773;28;20593;-90
2023/06/16 00:34:00;;;;;;;7.25;6.28;;;15.30;99.90;;;;;;5110716;28;20056;-91
2023/06/16 00:36:27;;;;;;;7.40;6.18;;;15.30;99.90;;;;;;5105153;28;20062;-90
2023/06/16 00:38:52;;;;;;;10.07;5.88;;;15.30;99.90;;;;;;5094288;28;20141;-88
2023/06/16 00:41:18;;;;;;;6.57;5.72;;;15.30;99.90;;;;;;5092452;28;20044;-88
2023/06/16 00:43:44;;;;;;;7.97;5.68;;;15.30;99.90;;;;;;5108240;28;20048;-89
2023/06/16 00:46:27;;;;;;;9.93;5.60;;;15.30;99.90;;;;;;5075533;28;20051;-90
2023/06/16 00:48:54;;;;;;;6.18;4.70;;;15.30;99.90;;;;;;5109521;28;20504;-90
2023/06/16 00:51:20;;;;;;;5.43;4.80;;;15.30;99.90;;;;;;5089894;28;20071;-88
2023/06/16 00:53:47;;;;;;;5.90;4.78;;;15.40;99.90;;;;;;5095793;28;20056;-90
2023/06/16 00:56:13;;;;;;;8.25;5.50;;;15.30;99.90;;;;;;5077472;28;20055;-89
2023/06/16 00:58:38;;;;;;;6.15;5.45;;;15.30;99.90;;;;;;5079117;28;20058;-90
2023/06/16 01:01:05;;;;;;;6.63;5.57;;;15.40;99.90;;;;;;5095716;28;20120;-90
2023/06/16 01:03:32;;;;;;;7.80;5.25;;;15.30;99.90;;;;;;5094195;28;20446;-90
2023/06/16 01:06:04;;;;;;;5.68;4.75;;;15.30;99.90;;;;;;5079001;28;20047;-90
2023/06/16 01:08:44;;;;;;;4.30;3.80;;;15.30;99.90;;;;;;5109470;28;20039;-90
2023/06/16 01:11:21;;;;;;;6.40;5.07;;;15.30;99.90;;;;;;5112839;28;20043;-91
2023/06/16 01:14:03;;;;;;;7.28;5.10;;;15.30;99.90;;;;;;5111821;28;20039;-91
2023/06/16 01:16:36;;;;;;;7.45;5.82;;;15.30;99.90;;;;;;5095459;28;20506;-89
2023/06/16 01:19:09;;;;;;;9.07;5.25;;;15.20;99.90;;;;;;5080056;28;20046;-88
2023/06/16 01:21:50;;;;;;;6.03;4.80;;;15.20;99.90;;;;;;5106141;28;20044;-90
2023/06/16 01:24:18;;;;;;;6.78;5.18;;;15.20;99.90;;;;;;5135272;28;20062;-89
2023/06/16 01:26:49;;;;;;;7.60;5.40;;;15.10;99.90;;;;;;5085155;28;20027;-91
2023/06/16 01:29:17;;;;;;;6.68;5.50;;;15.10;99.90;;;;;;5116367;28;20039;-89
2023/06/16 01:31:44;;;;;;;5.88;5.28;;;15.00;99.90;;;;;;5097354;28;20078;-92
2023/06/16 01:34:12;;;;;;;8.23;5.78;;;15.00;99.90;;;;;;5094127;28;20095;-90
2023/06/16 01:36:40;;;;;;;9.30;5.85;;;15.00;99.90;;;;;;5112491;28;20514;-88
2023/06/16 01:39:08;;;;;;;7.07;5.88;;;14.90;99.90;;;;;;5093689;28;20043;-90
2023/06/16 01:41:36;;;;;;;9.10;5.97;;;14.80;99.90;;;;;;5095448;28;20104;-89
2023/06/16 01:44:02;;;;;;;9.32;6.18;;;14.80;99.90;;;;;;5096179;28;20043;-90
2023/06/16 01:46:30;;;;;;;9.50;6.28;;;14.80;99.90;;;;;;5106806;28;20078;-90
2023/06/16 01:48:56;;;;;;;6.35;5.68;;;14.70;99.90;;;;;;5087850;28;20075;-89
2023/06/16 01:51:22;;;;;;;7.88;6.03;;;14.70;99.90;;;;;;5092097;28;20438;-90
2023/06/16 01:53:49;;;;;;;6.28;5.63;;;14.70;99.90;;;;;;5060450;28;20130;-88
2023/06/16 01:56:15;;;;;;;7.40;6.18;;;14.60;99.90;;;;;;5075081;28;20109;-89
2023/06/16 01:58:41;;;;;;;8.48;5.43;;;14.70;99.90;;;;;;5095212;28;20497;-89
2023/06/16 02:01:13;;;;;;;7.00;5.30;;;14.60;99.90;;;;;;5094376;28;20043;-89
2023/06/16 02:04:19;;;;;;;8.25;6.30;;;14.60;99.90;;;;;;5093022;28;20039;-90
2023/06/16 02:06:55;;;;;;;9.60;6.75;;;14.50;99.90;;;;;;5094851;28;20136;-89
2023/06/16 02:09:24;;;;;;;9.38;7.18;;;14.50;99.90;;;;;;5092838;28;20528;-89
2023/06/16 02:11:52;;;;;;;7.30;6.20;;;14.50;99.90;;;;;;5093019;28;20054;-89
2023/06/16 02:14:18;;;;;;;7.70;6.40;;;14.40;99.90;;;;;;5078200;28;20097;-91
2023/06/16 02:16:44;;;;;;;7.25;6.20;;;14.40;99.90;;;;;;5058763;28;20040;-90
2023/06/16 02:19:11;;;;;;;9.13;6.55;;;14.30;99.90;;;;;;5094375;28;20079;-90
2023/06/16 02:21:37;;;;;;;9.32;7.20;;;14.30;99.90;;;;;;5091810;28;20035;-90
2023/06/16 02:24:04;;;;;;;7.72;6.68;;;14.20;99.90;;;;;;5077357;28;20056;-89
2023/06/16 02:26:32;;;;;;;8.13;6.70;;;14.20;99.90;;;;;;5059312;28;20043;-90
2023/06/16 02:28:58;;;;;;;9.27;6.97;;;14.20;99.90;;;;;;5076749;28;20047;-90
2023/06/16 02:31:24;;;;;;;7.10;6.40;;;14.10;99.90;;;;;;5094183;28;20115;-89
2023/06/16 02:33:51;;;;;;;8.75;7.18;;;14.10;99.90;;;;;;5075143;28;20050;-89
2023/06/16 02:36:18;;;;;;;12.88;7.45;;;14.10;99.90;;;;;;5094406;28;20063;-90
2023/06/16 02:38:45;;;;;;;9.35;7.07;;;14.10;99.90;;;;;;5074918;28;20517;-91
2023/06/16 02:41:16;;;;;;;7.75;6.55;;;14.10;99.90;;;;;;5094025;28;20048;-88
2023/06/16 02:43:41;;;;;;;11.27;8.07;;;14.10;99.90;;;;;;5075684;28;20055;-89
2023/06/16 02:46:07;;;;;;;10.43;7.20;;;14.10;99.90;;;;;;5109825;28;20533;-89
2023/06/16 02:48:34;;;;;;;10.50;8.13;;;14.00;99.90;;;;;;5093085;28;20035;-90
2023/06/16 02:50:59;;;;;;;11.90;8.63;;;14.00;99.90;;;;;;5057698;28;20044;-89
2023/06/16 02:53:25;;;;;;;10.00;7.85;;;14.00;99.90;;;;;;5111019;28;20054;-89
2023/06/16 02:55:51;;;;;;;12.90;8.18;;;14.00;99.90;;;;;;5081664;28;20054;-89
2023/06/16 02:58:18;;;;;;;9.68;8.60;;;14.00;99.90;;;;;;5129255;28;20062;-90
2023/06/16 03:00:44;;;;;;;11.10;8.48;;;15.40;99.90;;;;;;5114752;28;20062;-91
2023/06/16 03:03:09;;;;;;;10.52;9.43;;;14.00;99.90;;;;;;5117090;28;20055;-91
2023/06/16 03:05:36;;;;;;;10.27;8.35;;;14.00;99.90;;;;;;5090575;28;20057;-91
2023/06/16 03:08:02;;;;;;;15.65;10.18;;;14.00;99.90;;;;;;5092276;28;20264;-91
2023/06/16 03:10:28;;;;;;;13.18;9.63;;;14.00;99.90;;;;;;5093620;28;20100;-90
2023/06/16 03:12:53;;;;;;;12.18;9.85;;;13.90;99.90;;;;;;5091027;28;20044;-90
2023/06/16 03:15:23;;;;;;;12.73;10.00;;;13.90;99.90;;;;;;5093794;28;20048;-89
2023/06/16 03:17:49;;;;;;;11.68;9.30;;;13.90;99.90;;;;;;5108590;28;20408;-90
2023/06/16 03:20:15;;;;;;;11.07;9.13;;;13.90;99.90;;;;;;5109586;28;20043;-89
2023/06/16 03:22:41;;;;;;;13.07;9.80;;;13.90;99.90;;;;;;5092551;28;20403;-90
2023/06/16 03:25:07;;;;;;;13.90;10.60;;;13.90;99.90;;;;;;5074217;28;20039;-89
2023/06/16 03:27:32;;;;;;;13.85;10.02;;;13.90;99.90;;;;;;5092641;28;20039;-89
2023/06/16 03:29:58;;;;;;;14.35;11.48;;;13.90;99.90;;;;;;5092246;28;20420;-90
2023/06/16 03:32:24;;;;;;;17.67;12.07;;;13.90;99.90;;;;;;5080718;28;20055;-87
2023/06/16 03:34:50;;;;;;;12.85;11.45;;;13.90;99.90;;;;;;5062575;28;20040;-89
2023/06/16 03:37:17;;;;;;;13.05;11.23;;;14.00;99.90;;;;;;5097228;28;20040;-89
2023/06/16 03:39:43;;;;;;;16.13;12.82;;;14.00;99.90;;;;;;5112702;28;20100;-88
2023/06/16 03:42:08;;;;;;;13.07;11.00;;;14.40;99.90;;;;;;5078502;28;20039;-88
2023/06/16 03:44:34;;;;;;;12.88;10.80;;;14.10;99.90;;;;;;5079731;28;20487;-90
2023/06/16 03:47:00;;;;;;;14.27;11.07;;;14.10;99.90;;;;;;5077715;28;20096;-89
2023/06/16 03:49:26;;;;;;;14.95;13.35;;;12.40;99.90;;;;;;5096977;28;20073;-89
2023/06/16 03:51:52;;;;;;;14.18;12.57;;;14.20;99.90;;;;;;5111951;28;20132;-90
2023/06/16 03:54:19;;;;;;;16.67;12.00;;;14.20;99.90;;;;;;5097031;28;20488;-90
2023/06/16 03:56:45;;;;;;;14.02;12.23;;;14.30;99.90;;;;;;5112584;28;20055;-89
2023/06/16 03:59:13;;;;;;;14.32;11.93;;;14.30;99.90;;;;;;5097645;28;20084;-89
2023/06/16 04:01:39;;;;;;;13.27;11.68;;;14.40;99.90;;;;;;5082360;28;20073;-91
2023/06/16 04:04:07;;;;;;;15.63;12.55;;;14.40;99.90;;;;;;5081025;28;20514;-91
2023/06/16 04:06:36;;;;;;;14.77;12.70;;;14.90;99.90;;;;;;5124219;28;20052;-89
2023/06/16 04:09:02;;;;;;;16.55;12.52;;;14.50;99.90;;;;;;5086345;28;20043;-92
2023/06/16 04:11:30;;;;;;;16.05;12.48;;;14.50;99.90;;;;;;5083393;28;20040;-88
2023/06/16 04:13:56;;;;;;;13.75;11.95;;;14.60;99.90;;;;;;5079566;28;20513;-89
2023/06/16 04:16:22;;;;;;;18.98;13.23;;;14.70;99.90;;;;;;5081206;28;20055;-91
2023/06/16 04:18:48;;;;;;;17.17;12.90;;;14.70;99.90;;;;;;5098030;28;20050;-89
2023/06/16 04:21:17;;;;;;;17.13;14.38;;;14.80;99.90;;;;;;5062344;28;20032;-88
2023/06/16 04:23:43;;;;;;;22.63;15.20;;;14.80;99.90;;;;;;5115932;28;20047;-88
2023/06/16 04:26:09;;;;;;;17.92;13.52;;;14.90;99.90;;;;;;5077314;28;20132;-89
2023/06/16 04:28:43;;;;;;;18.27;15.27;;;15.00;99.90;;;;;;5100601;28;20089;-89
2023/06/16 04:31:11;;;;;;;21.17;16.27;;;15.10;99.90;;;;;;5085656;28;20036;-88
2023/06/16 04:33:41;;;;;;;20.55;15.00;;;15.10;99.90;;;;;;5105304;28;20039;-87
2023/06/16 04:36:07;;;;;;;17.83;14.85;;;15.10;99.90;;;;;;5134687;28;20055;-90
2023/06/16 04:38:33;;;;;;;21.15;16.50;;;15.20;99.90;;;;;;5127591;28;20035;-87
2023/06/16 04:40:59;;;;;;;18.92;16.58;;;15.30;99.90;;;;;;5096530;28;20092;-89
2023/06/16 04:43:25;;;;;;;21.25;16.58;;;15.30;99.90;;;;;;5111490;28;20040;-88
2023/06/16 04:45:50;;;;;;;21.77;17.63;;;15.40;99.90;;;;;;5061542;28;20055;-87
2023/06/16 04:48:16;;;;;;;22.13;17.38;;;15.50;99.90;;;;;;5111072;28;20070;-87
2023/06/16 04:50:42;;;;;;;23.05;18.13;;;15.60;99.90;;;;;;5077830;28;20051;-87
2023/06/16 04:53:08;;;;;;;21.08;18.45;;;15.70;99.90;;;;;;5095308;28;20039;-88
2023/06/16 04:55:34;;;;;;;21.60;16.15;;;15.70;99.90;;;;;;5112219;28;20142;-92
2023/06/16 04:57:59;;;;;;;21.02;16.95;;;15.80;99.90;;;;;;5096361;28;20089;-92
2023/06/16 05:00:28;;;;;;;23.20;16.42;;;15.90;99.90;;;;;;5062272;28;20051;-94
2023/06/16 05:03:00;;;;;;;19.13;16.17;;;16.00;99.90;;;;;;5067994;28;20048;-92
2023/06/16 05:05:26;;;;;;;22.20;17.48;;;16.00;99.90;;;;;;5061963;28;20073;-89
2023/06/16 05:07:52;;;;;;;21.98;17.00;;;16.10;99.90;;;;;;5095342;28;20047;-89
2023/06/16 05:10:18;;;;;;;20.15;14.27;;;16.20;99.90;;;;;;5081412;28;20050;-91
2023/06/16 05:12:43;;;;;;;23.08;14.82;;;14.50;99.90;;;;;;5064444;28;20577;-89
2023/06/16 05:15:09;;;;;;;19.60;14.20;;;16.30;99.90;;;;;;5103023;28;20073;-90
2023/06/16 05:17:38;;;;;;;20.25;15.27;;;16.40;99.90;;;;;;5121708;28;20119;-95
2023/06/16 05:20:49;;;;;;;17.20;14.00;;;16.50;99.90;;;;;;5076907;28;20051;-96
2023/06/16 05:23:15;;;;;;;18.33;12.85;;;16.60;99.90;;;;;;5088736;28;20142;-93
2023/06/16 05:25:40;;;;;;;21.02;13.52;;;16.70;99.90;;;;;;5088692;28;20070;-94
2023/06/16 05:28:06;;;;;;;14.70;13.00;;;16.80;99.90;;;;;;5111569;28;20057;-93
2023/06/16 05:30:33;;;;;;;18.33;13.55;;;16.90;99.90;;;;;;5104293;28;20048;-93
2023/06/16 05:32:59;;;;;;;22.10;13.85;;;17.00;99.90;;;;;;5099248;28;20044;-96
2023/06/16 05:35:28;;;;;;;15.85;13.18;;;15.60;99.90;;;;;;5070831;28;20034;-95
2023/06/16 05:38:05;;;;;;;18.65;13.85;;;15.90;99.90;;;;;;5076095;28;20047;-95
2023/06/16 05:40:31;;;;;;;18.83;14.68;;;17.30;99.90;;;;;;5092931;28;20035;-95
2023/06/16 05:50:31;;;;;;;16.23;12.63;;;17.60;99.90;;;;;;5135608;28;20119;-95
2023/06/16 05:52:58;;;;;;;19.90;13.52;;;17.70;99.90;;;;;;5110631;28;20067;-94
2023/06/16 05:55:24;;;;;;;18.42;14.32;;;17.80;99.90;;;;;;5071942;28;20060;-90
2023/06/16 05:57:50;;;;;;;21.17;16.02;;;17.40;99.90;;;;;;5063760;28;20051;-93
2023/06/16 06:00:16;;;;;;;23.35;13.48;;;18.00;99.90;;;;;;5065142;28;20044;-95
2023/06/16 06:02:42;;;;;;;17.13;12.15;;;18.20;99.90;;;;;;5067223;28;20051;-95
2023/06/16 06:05:08;;;;;;;14.48;10.75;;;18.30;99.90;;;;;;5085443;28;20040;-94
2023/06/16 06:07:34;;;;;;;14.00;9.95;;;18.30;99.90;;;;;;5083139;28;20027;-93
2023/06/16 06:10:00;;;;;;;11.70;8.57;;;18.40;99.90;;;;;;5085297;28;20050;-93
2023/06/16 06:12:25;;;;;;;8.88;6.82;;;18.60;99.90;;;;;;5078509;28;20046;-95
2023/06/16 06:14:51;;;;;;;7.43;6.40;;;18.70;99.90;;;;;;5071192;28;20047;-94
2023/06/16 06:17:17;;;;;;;10.05;6.20;;;18.70;99.90;;;;;;5063318;28;20174;-92
2023/06/16 06:19:43;;;;;;;13.07;6.20;;;18.80;99.90;;;;;;5062802;28;20039;-96
2023/06/16 06:22:09;;;;;;;10.98;6.47;;;18.90;99.90;;;;;;5073564;28;20038;-94
2023/06/16 06:24:35;;;;;;;7.78;5.70;;;19.00;99.90;;;;;;5096584;28;20044;-95
2023/06/16 06:27:00;;;;;;;8.23;6.30;;;19.10;99.90;;;;;;5093363;28;20075;-94
2023/06/16 06:29:26;;;;;;;8.95;6.38;;;19.20;99.90;;;;;;5079815;28;20451;-95
2023/06/16 06:31:52;;;;;;;10.40;6.10;;;19.30;99.90;;;;;;5081029;28;20047;-95
2023/06/16 06:34:18;;;;;;;5.97;5.38;;;19.40;99.90;;;;;;5079307;28;20039;-94
2023/06/16 06:36:45;;;;;;;7.25;5.18;;;19.50;99.90;;;;;;5095264;28;20334;-96
2023/06/16 06:39:11;;;;;;;6.60;5.05;;;19.60;99.90;;;;;;5095240;28;20050;-95
2023/06/16 06:41:36;;;;;;;7.63;4.68;;;19.80;99.90;;;;;;5059853;28;20040;-94
2023/06/16 06:44:02;;;;;;;6.72;4.70;;;19.80;99.90;;;;;;5062854;28;20047;-96
2023/06/16 06:46:28;;;;;;;6.65;5.47;;;20.00;99.90;;;;;;5059531;28;20043;-94
2023/06/16 06:48:55;;;;;;;5.68;4.90;;;20.00;99.90;;;;;;5062395;28;20048;-94
2023/06/16 06:51:21;;;;;;;6.25;4.53;;;20.10;99.90;;;;;;5060091;28;20044;-95
2023/06/16 06:53:47;;;;;;;7.35;4.05;;;20.20;99.90;;;;;;5060690;28;20085;-94
2023/06/16 06:56:14;;;;;;;6.13;4.55;;;20.30;99.90;;;;;;5095729;28;20388;-95
2023/06/16 06:58:40;;;;;;;5.30;4.18;;;20.40;99.90;;;;;;5059635;28;20089;-94
2023/06/16 07:01:06;;;;;;;5.22;4.22;;;20.50;99.90;;;;;;5062437;28;20047;-96
2023/06/16 07:03:32;;;;;;;5.35;3.83;;;20.60;99.90;;;;;;5075947;28;20048;-94
2023/06/16 07:05:58;;;;;;;4.10;3.65;;;20.60;99.90;;;;;;5080053;28;20099;-95
2023/06/16 07:08:25;;;;;;;3.90;3.42;;;20.80;99.90;;;;;;5093432;28;20040;-96
2023/06/16 07:10:51;;;;;;;4.88;3.13;;;20.80;99.90;;;;;;5067118;28;20387;-95
2023/06/16 07:13:16;;;;;;;5.82;3.70;;;21.00;99.90;;;;;;5084378;28;20040;-95
2023/06/16 07:15:42;;;;;;;4.72;3.38;;;21.10;99.90;;;;;;5062370;28;20067;-96
2023/06/16 07:18:08;;;;;;;4.55;4.00;;;21.20;99.90;;;;;;5078939;28;20035;-95
2023/06/16 07:20:33;;;;;;;4.78;3.22;;;21.30;99.90;;;;;;5075663;28;20445;-95
2023/06/16 07:22:59;;;;;;;4.50;3.88;;;21.40;99.90;;;;;;5077071;28;20058;-95
2023/06/16 07:25:28;;;;;;;5.15;4.25;;;21.40;99.90;;;;;;5075685;28;20039;-94
2023/06/16 07:27:54;;;;;;;3.97;3.22;;;21.60;99.90;;;;;;5064377;28;20177;-94
2023/06/16 07:30:20;;;;;;;6.97;3.90;;;21.70;99.90;;;;;;5093641;28;20040;-93
2023/06/16 07:32:45;;;;;;;4.82;3.90;;;21.70;99.90;;;;;;5102117;28;20112;-95
2023/06/16 07:35:11;;;;;;;5.85;3.95;;;21.70;99.90;;;;;;5083264;28;20042;-93
2023/06/16 07:37:37;;;;;;;4.40;3.35;;;21.90;99.90;;;;;;5098940;28;20080;-95
2023/06/16 07:40:08;;;;;;;3.83;3.05;;;22.00;99.90;;;;;;5090454;28;20051;-95
2023/06/16 07:42:35;;;;;;;5.70;3.75;;;22.10;99.90;;;;;;5097596;28;20119;-95
2023/06/16 07:45:01;;;;;;;3.22;2.65;;;22.10;99.90;;;;;;5063019;28;20181;-95
2023/06/16 07:47:27;;;;;;;3.88;3.05;;;22.20;99.90;;;;;;5094884;28;20051;-96
2023/06/16 07:49:56;;;;;;;4.25;2.95;;;22.30;99.90;;;;;;5063988;28;20048;-96
2023/06/16 07:52:21;;;;;;;3.83;2.35;;;22.30;99.90;;;;;;5065604;28;20051;-96
2023/06/16 07:54:53;;;;;;;3.28;2.40;;;22.40;99.90;;;;;;5084281;28;20031;-95
2023/06/16 07:57:18;;;;;;;3.33;2.42;;;22.90;99.90;;;;;;5098683;28;20047;-94
2023/06/16 07:59:44;;;;;;;6.03;2.42;;;22.50;99.90;;;;;;5064581;28;20055;-94
2023/06/16 08:02:10;;;;;;;3.30;1.80;;;22.50;99.90;;;;;;5069251;28;20514;-96
2023/06/16 08:04:42;;;;;;;4.20;1.93;;;22.60;99.00;;;;;;5068519;28;20077;-96
2023/06/16 08:07:08;;;;;;;3.03;1.70;;;22.60;98.10;;;;;;5083324;28;20035;-96
2023/06/16 08:09:35;;;;;;;4.03;2.10;;;24.20;97.40;;;;;;5084327;28;20057;-95
2023/06/16 08:12:01;;;;;;;2.35;1.40;;;22.80;95.80;;;;;;5067412;28;20122;-96
2023/06/16 08:14:27;;;;;;;2.80;1.58;;;22.80;94.60;;;;;;5084245;28;20044;-96
2023/06/16 08:16:53;;;;;;;5.10;1.88;;;22.80;94.40;;;;;;5071135;28;20040;-96
2023/06/16 08:19:19;;;;;;;1.92;1.40;;;22.00;93.80;;;;;;5085531;28;20196;-96
2023/06/16 08:21:45;;;;;;;2.13;1.20;;;22.90;92.80;;;;;;5073287;28;20044;-96
2023/06/16 08:24:13;;;;;;;1.50;1.00;;;23.00;91.80;;;;;;5073291;28;20059;-96
2023/06/16 08:26:44;;;;;;;1.83;1.30;;;23.00;90.70;;;;;;5120477;28;20048;-95
2023/06/16 08:29:10;;;;;;;1.40;1.27;;;23.00;89.20;;;;;;5086338;28;20036;-96
2023/06/16 08:32:14;;;;;;;2.10;1.23;;;23.00;88.30;;;;;;5114212;28;20028;-96
2023/06/16 08:34:49;;;;;;;1.85;1.13;;;21.80;82.50;;;;;;5134871;28;20088;-96
2023/06/16 08:37:16;;;;;;;2.10;0.98;;;22.20;84.80;;;;;;5111081;28;20044;-96
2023/06/16 08:39:45;;;;;;;1.80;1.30;;;23.30;84.30;;;;;;5105967;28;20042;-96
2023/06/16 08:42:15;;;;;;;2.58;1.45;;;23.20;84.40;;;;;;5093867;28;20095;-96
2023/06/16 08:44:43;;;;;;;1.58;1.15;;;24.40;84.60;;;;;;5118581;28;20040;-95
2023/06/16 08:47:09;;;;;;;2.28;1.00;;;24.90;84.10;;;;;;5120430;28;20032;-96
2023/06/16 08:49:58;;;;;;;2.40;1.20;;;23.50;82.80;;;;;;5086136;28;20059;-96
2023/06/16 08:52:41;;;;;;;4.03;1.42;;;24.90;82.00;;;;;;5090746;28;20053;-96
2023/06/16 08:55:23;;;;;;;2.80;1.40;;;23.50;83.10;;;;;;5055414;28;20033;-96
2023/06/16 08:58:28;;;;;;;1.30;1.13;;;22.40;82.30;;;;;;5046163;28;20033;-95
2023/06/16 09:00:54;;;;;;;3.28;1.52;;;22.90;82.30;;;;;;5056801;28;20024;-96
2023/06/16 09:03:21;;;;;;;2.20;1.58;;;23.80;84.10;;;;;;5052271;28;20040;-94
2023/06/16 09:05:47;;;;;;;1.55;1.20;;;23.90;83.00;;;;;;5038010;28;20024;-96
2023/06/16 09:08:25;;;;;;;1.77;0.90;;;23.90;82.90;;;;;;5060568;28;20056;-96
2023/06/16 09:10:56;;;;;;;1.65;1.05;;;23.70;83.00;;;;;;5057587;28;20041;-96
2023/06/16 09:13:24;;;;;;;2.58;1.27;;;24.10;82.30;;;;;;5020270;28;20041;-90
2023/06/16 09:15:51;;;;;;;2.80;1.30;;;24.20;81.10;;;;;;5024065;28;20053;-91
2023/06/16 09:18:18;;;;;;;7.63;1.83;;;24.20;80.90;;;;;;4999187;28;20077;-91
2023/06/16 09:20:52;;;;;;;3.45;1.50;;;24.30;80.60;;;;;;5016112;28;20506;-91
2023/06/16 09:23:28;;;;;;;2.63;1.40;;;24.40;80.30;;;;;;5001722;28;20668;-90
2023/06/16 09:25:54;;;;;;;2.58;1.35;;;24.40;78.20;;;;;;4997230;28;20052;-90
2023/06/16 09:28:34;;;;;;;4.95;1.38;;;24.40;78.90;;;;;;4998940;28;20090;-90
2023/06/16 09:31:04;;;;;;;6.70;1.30;;;24.40;76.70;;;;;;5067279;28;20089;-92
2023/06/16 09:33:30;;;;;;;3.72;1.35;;;24.40;79.10;;;;;;5057328;28;20048;-90
2023/06/16 09:35:57;;;;;;;3.45;1.00;;;24.60;79.30;;;;;;5058602;28;20067;-90
2023/06/16 09:38:23;;;;;;;3.55;1.17;;;24.70;78.80;;;;;;5056887;28;20107;-91
2023/06/16 09:40:49;;;;;;;2.05;1.35;;;24.80;78.60;;;;;;5042287;28;20078;-90
2023/06/16 09:43:16;;;;;;;3.30;1.25;;;24.90;78.20;;;;;;5076445;28;20047;-89
2023/06/16 09:45:44;;;;;;;2.90;1.33;;;25.00;77.80;;;;;;5077549;28;20047;-90
2023/06/16 09:48:11;;;;;;;4.35;1.35;;;25.10;77.60;;;;;;5093162;28;20058;-93
2023/06/16 09:50:38;;;;;;;2.38;1.17;;;25.10;77.20;;;;;;5112465;28;20044;-91
2023/06/16 09:53:08;;;;;;;1.38;0.95;;;25.20;77.10;;;;;;5111050;28;20512;-91
2023/06/16 09:55:37;;;;;;;2.60;1.30;;;25.20;76.20;;;;;;5078024;28;20056;-92
2023/06/16 09:58:04;;;;;;;2.33;1.38;;;25.30;75.70;;;;;;5120472;28;20151;-91
2023/06/16 10:00:30;;;;;;;2.70;1.20;;;25.40;74.90;;;;;;5109416;28;20065;-89
2023/06/16 10:02:57;;;;;;;1.92;1.42;;;25.30;73.60;;;;;;5063257;28;20444;-91
2023/06/16 10:05:24;;;;;;;4.40;1.27;;;25.20;72.30;;;;;;5092888;28;20385;-88
2023/06/16 10:07:53;;;;;;;3.88;1.20;;;26.60;72.90;;;;;;5094026;28;20040;-89
2023/06/16 10:10:25;;;;;;;1.42;1.30;;;25.10;71.90;;;;;;5110529;28;20082;-90
2023/06/16 10:12:53;;;;;;;2.20;1.25;;;25.10;71.10;;;;;;5092265;28;20079;-87
2023/06/16 10:15:23;;;;;;;1.60;1.50;;;25.20;71.60;;;;;;5110718;28;20039;-87
2023/06/16 10:17:51;;;;;;;2.63;1.40;;;25.30;71.50;;;;;;5109532;28;20044;-89
2023/06/16 10:20:18;;;;;;;2.20;1.20;;;25.30;72.10;;;;;;5097714;28;20036;-89
2023/06/16 10:22:46;;;;;;;6.63;1.98;;;25.50;72.10;;;;;;5095298;28;20490;-87
2023/06/16 10:25:12;;;;;;;1.63;1.10;;;25.50;71.40;;;;;;5093700;28;20055;-90
2023/06/16 10:27:40;;;;;;;1.63;1.08;;;25.60;71.40;;;;;;5096742;28;20031;-90
2023/06/16 10:30:19;;;;;;;1.48;1.20;;;25.80;71.20;;;;;;5093914;28;20049;-89
2023/06/16 10:32:55;;;;;;;2.15;1.48;;;25.80;70.20;;;;;;5081398;28;20047;-90
2023/06/16 10:35:22;;;;;;;1.92;1.50;;;25.80;69.60;;;;;;5093469;28;20063;-92
2023/06/16 10:37:55;;;;;;;3.00;1.58;;;25.80;69.50;;;;;;5112076;28;20051;-90
2023/06/16 10:40:23;;;;;;;2.78;1.77;;;26.00;68.20;;;;;;5105035;28;20036;-95
2023/06/16 10:42:55;;;;;;;1.73;1.48;;;25.80;68.70;;;;;;5109778;28;20082;-93
2023/06/16 10:45:28;;;;;;;2.03;1.33;;;25.80;67.80;;;;;;5096997;28;20035;-94
2023/06/16 10:48:11;;;;;;;6.60;1.85;;;26.00;68.20;;;;;;5115922;28;20020;-93
2023/06/16 10:50:59;;;;;;;2.40;1.15;;;26.10;68.00;;;;;;5104572;28;20055;-93
2023/06/16 11:01:29;;;;;;;3.53;1.17;;;26.40;66.60;;;;;;5203089;22;21504;-94
2023/06/16 11:04:04;;;;;;;2.13;0.90;;;25.40;65.50;;;;;;5040480;28;20029;-96
2023/06/16 11:07:18;;;;;;;1.52;1.20;;;25.80;66.90;;;;;;5048844;28;20056;-96
2023/06/16 11:10:01;;;;;;;3.92;1.25;;;25.50;65.40;;;;;;5076453;28;20501;-93
2023/06/16 11:12:32;;;;;;;1.90;1.17;;;26.70;65.60;;;;;;5055909;28;20075;-96
2023/06/16 11:14:58;;;;;;;9.52;1.40;;;26.70;65.30;;;;;;5053337;28;20274;-94
2023/06/16 11:17:28;;;;;;;4.43;1.08;;;26.70;65.00;;;;;;5046708;28;20143;-96
2023/06/16 11:19:55;;;;;;;3.42;1.25;;;26.60;64.00;;;;;;5031892;28;20082;-96
2023/06/16 11:22:42;;;;;;;1.95;1.00;;;25.60;63.70;;;;;;5027506;28;20049;-96
2023/06/16 11:25:14;;;;;;;1.85;1.08;;;26.10;62.30;;;;;;5011404;28;20049;-96
2023/06/16 11:27:40;;;;;;;2.03;1.17;;;26.30;63.70;;;;;;5001460;28;20461;-94
2023/06/16 11:30:07;;;;;;;2.45;1.33;;;26.70;62.80;;;;;;5020390;28;20041;-95
2023/06/16 11:32:37;;;;;;;3.75;1.10;;;26.80;60.90;;;;;;5018408;28;20379;-96
2023/06/16 11:35:10;;;;;;;3.85;1.30;;;26.90;59.80;;;;;;5003180;28;20543;-96
2023/06/16 11:37:40;;;;;;;2.30;1.20;;;26.90;60.10;;;;;;5002040;28;20110;-96
2023/06/16 11:40:11;;;;;;;2.50;1.40;;;26.90;59.60;;;;;;5019994;28;20105;-96
2023/06/16 11:42:37;;;;;;;1.75;1.10;;;27.10;59.00;;;;;;4989457;28;20072;-96
2023/06/16 11:45:12;;;;;;;2.40;1.45;;;27.10;59.00;;;;;;5014792;28;20052;-90
2023/06/16 11:47:38;;;;;;;4.10;1.17;;;27.20;58.10;;;;;;5011808;28;20049;-93
2023/06/16 11:50:05;;;;;;;1.30;1.05;;;27.20;58.40;;;;;;4994386;28;20038;-88
2023/06/16 11:52:31;;;;;;;1.48;1.10;;;27.20;56.90;;;;;;4998781;28;20049;-88
2023/06/16 11:55:00;;;;;;;2.05;1.10;;;27.20;57.00;;;;;;5014726;28;20041;-88
2023/06/16 11:57:27;;;;;;;1.67;1.20;;;27.20;56.30;;;;;;5016218;28;20052;-89
2023/06/16 11:59:53;;;;;;;1.90;0.95;;;27.30;56.50;;;;;;5015851;28;20405;-89
2023/06/16 12:02:19;;;;;;;1.58;0.90;;;27.40;56.30;;;;;;4998630;28;20106;-88
2023/06/16 12:04:45;;;;;;;1.45;1.00;;;27.50;55.70;;;;;;4998833;28;20048;-89
2023/06/16 12:07:11;;;;;;;2.17;1.38;;;27.60;55.30;;;;;;5015838;28;20061;-91
2023/06/16 12:09:38;;;;;;;4.07;0.90;;;27.60;54.80;;;;;;4998671;28;20077;-90
2023/06/16 12:12:05;;;;;;;3.05;1.30;;;27.60;55.00;;;;;;5030097;28;20048;-87
2023/06/16 12:14:35;;;;;;;2.47;1.10;;;27.60;54.40;;;;;;4999049;28;20043;-91
2023/06/16 12:17:02;;;;;;;3.03;1.20;;;27.60;54.50;;;;;;5029659;28;20052;-88
2023/06/16 12:19:28;;;;;;;4.05;1.30;;;27.50;54.80;;;;;;4997610;28;20411;-89
2023/06/16 12:22:01;;;;;;;3.60;1.35;;;27.50;55.00;;;;;;5013667;28;20048;-90
2023/06/16 12:24:28;;;;;;;3.35;1.08;;;27.50;55.00;;;;;;5015203;28;20045;-89
2023/06/16 12:26:54;;;;;;;3.15;1.38;;;27.50;55.70;;;;;;5004960;28;20132;-90
2023/06/16 12:29:20;;;;;;;1.95;1.23;;;27.40;55.10;;;;;;5004459;28;20084;-89
2023/06/16 12:31:59;;;;;;;1.85;0.93;;;27.60;55.20;;;;;;5015435;28;20091;-90
2023/06/16 12:34:35;;;;;;;1.77;1.20;;;27.60;54.90;;;;;;4998342;28;20049;-91
2023/06/16 12:37:06;;;;;;;3.17;1.15;;;27.50;55.00;;;;;;5012604;28;20049;-89
2023/06/16 12:39:33;;;;;;;4.53;1.50;;;27.40;55.20;;;;;;5013499;28;20041;-90
2023/06/16 12:42:00;;;;;;;1.73;1.23;;;27.40;55.00;;;;;;5012039;28;20501;-88
2023/06/16 12:44:50;;;;;;;4.25;1.45;;;27.40;55.10;;;;;;5013629;28;20393;-89
2023/06/16 12:47:23;;;;;;;2.95;1.30;;;27.30;54.30;;;;;;4996762;28;20493;-90
2023/06/16 12:49:51;;;;;;;1.73;1.38;;;27.20;54.80;;;;;;5033005;28;20116;-90
2023/06/16 12:52:19;;;;;;;3.40;2.50;;;27.00;54.60;;;;;;5016770;28;20489;-89
2023/06/16 12:54:46;;;;;;;2.75;1.40;;;27.10;55.30;;;;;;5000699;28;20103;-89
2023/06/16 12:57:12;;;;;;;2.53;1.92;;;27.00;54.90;;;;;;5034258;28;20080;-93
2023/06/16 12:59:38;;;;;;;2.28;1.17;;;27.10;55.00;;;;;;5002937;28;20053;-92
2023/06/16 13:02:04;;;;;;;3.10;1.00;;;27.40;55.70;;;;;;5017624;28;20056;-92
2023/06/16 13:04:30;;;;;;;1.50;1.15;;;27.60;55.50;;;;;;5017811;28;20501;-88